createdAt,value
2019-01-14T15:55:14.596Z,98126.56
2019-01-14T15:57:44.055Z,98129.84
2019-01-14T16:00:15.139Z,98130.84
2019-01-14T16:02:44.591Z,98128.61
2019-01-14T16:05:14.520Z,98144.42
2019-01-14T16:07:43.965Z,98135.30
2019-01-14T16:10:16.371Z,98140.27
2019-01-14T16:12:45.819Z,98143.80
2019-01-14T16:15:15.662Z,98135.05
2019-01-14T16:17:45.451Z,98135.27
2019-01-14T16:20:16.821Z,98138.70
2019-01-14T16:22:46.330Z,98138.00
2019-01-14T16:25:15.737Z,98146.87
2019-01-14T16:27:45.193Z,98139.23
2019-01-14T16:30:19.611Z,98144.58
2019-01-14T16:32:49.091Z,98146.36
2019-01-14T16:35:18.515Z,98153.45
2019-01-14T16:37:47.904Z,98155.20
2019-01-14T16:40:18.330Z,98144.11
2019-01-14T16:42:48.035Z,98160.39
2019-01-14T16:45:22.878Z,98162.84
2019-01-14T16:47:52.331Z,98164.08
2019-01-14T16:50:21.797Z,98161.35
2019-01-14T16:52:51.229Z,98157.50
2019-01-14T16:55:32.005Z,98157.00
2019-01-14T16:58:01.487Z,98157.00
2019-01-14T17:00:31.002Z,98161.92
2019-01-14T17:03:00.448Z,98161.12
2019-01-14T17:05:29.896Z,98159.60
2019-01-14T17:07:59.321Z,98162.66
2019-01-14T17:10:28.843Z,98159.34
2019-01-14T17:12:58.302Z,98169.71
2019-01-14T17:15:27.733Z,98156.83
2019-01-14T17:17:57.188Z,98167.15
2019-01-14T17:20:26.611Z,98171.34
2019-01-14T17:22:56.016Z,98171.02
2019-01-14T17:25:25.517Z,98167.66
2019-01-14T17:27:55.163Z,98172.72
2019-01-14T17:30:24.605Z,98168.03
2019-01-14T17:32:54.035Z,98170.70
2019-01-14T17:35:23.502Z,98168.18
2019-01-14T17:37:52.990Z,98180.33
2019-01-14T17:40:22.396Z,98176.83
2019-01-14T17:42:51.810Z,98176.64
2019-01-14T17:45:21.363Z,98178.48
2019-01-14T17:47:50.743Z,98163.67
2019-01-14T17:50:20.790Z,98170.30
2019-01-14T17:52:50.281Z,98175.31
2019-01-14T17:55:19.799Z,98171.37
2019-01-14T17:57:49.380Z,98170.03
2019-01-14T18:00:20.879Z,98177.56
2019-01-14T18:02:50.347Z,98177.20
2019-01-14T18:05:19.826Z,98173.20
2019-01-14T18:07:49.334Z,98182.80
2019-01-14T18:10:19.397Z,98183.55
2019-01-14T18:12:48.861Z,98181.16
2019-01-14T18:15:18.397Z,98186.23
2019-01-14T18:17:47.898Z,98192.07
2019-01-14T18:20:19.077Z,98185.99
2019-01-14T18:22:48.499Z,98191.97
2019-01-14T18:25:18.057Z,98199.89
2019-01-14T18:27:47.491Z,98210.25
2019-01-14T18:30:18.732Z,98211.98
2019-01-14T18:32:48.346Z,98218.20
2019-01-14T18:35:17.780Z,98224.55
2019-01-14T18:37:47.195Z,98232.56
2019-01-14T18:40:18.931Z,98240.89
2019-01-14T18:42:48.651Z,98233.53
2019-01-14T18:45:19.699Z,98232.92
2019-01-14T18:47:49.507Z,98246.47
2019-01-14T18:50:21.185Z,98235.36
2019-01-14T18:52:50.639Z,98235.47
2019-01-14T18:55:20.127Z,98245.77
2019-01-14T18:57:50.110Z,98244.56
2019-01-14T19:00:23.818Z,98255.30
2019-01-14T19:02:53.528Z,98263.95
2019-01-14T19:05:22.893Z,98256.13
2019-01-14T19:07:52.304Z,98262.99
2019-01-14T19:10:21.840Z,98272.05
2019-01-14T19:12:51.414Z,98269.42
2019-01-14T19:15:21.736Z,98256.53
2019-01-14T19:17:52.275Z,98265.05
2019-01-14T19:20:29.212Z,98267.58
2019-01-14T19:22:58.666Z,98272.78
2019-01-14T19:25:28.390Z,98281.38
2019-01-14T19:27:57.858Z,98279.13
2019-01-14T19:30:27.303Z,98277.19
2019-01-14T19:32:56.805Z,98267.77
2019-01-14T19:35:26.347Z,98276.28
2019-01-14T19:37:55.810Z,98267.40
2019-01-14T19:40:25.359Z,98273.75
2019-01-14T19:42:54.840Z,98272.23
2019-01-14T19:45:24.372Z,98274.77
2019-01-14T19:47:53.811Z,98274.44
2019-01-14T19:50:24.728Z,98269.24
2019-01-14T19:52:55.405Z,98272.79
2019-01-14T19:55:25.062Z,98277.06
2019-01-14T19:57:54.589Z,98279.08
2019-01-14T20:00:26.373Z,98284.38
2019-01-14T20:02:55.836Z,98279.77
2019-01-14T20:05:25.298Z,98296.69
2019-01-14T20:07:55.243Z,98298.78
2019-01-14T20:10:24.730Z,98283.91
2019-01-14T20:12:54.793Z,98295.45
2019-01-14T20:15:24.272Z,98291.95
2019-01-14T20:17:53.763Z,98301.61
2019-01-14T20:20:23.863Z,98302.45
2019-01-14T20:22:53.305Z,98293.48
2019-01-14T20:25:22.910Z,98307.85
2019-01-14T20:27:52.350Z,98302.70
2019-01-14T20:30:23.427Z,98305.41
2019-01-14T20:32:53.046Z,98302.86
2019-01-14T20:35:22.494Z,98305.48
2019-01-14T20:37:52.009Z,98307.88
2019-01-14T20:40:21.470Z,98317.97
2019-01-14T20:42:50.922Z,98317.97
2019-01-14T20:45:20.489Z,98324.14
2019-01-14T20:47:50.131Z,98322.08
2019-01-14T20:50:20.535Z,98327.70
2019-01-14T20:52:49.949Z,98337.14
2019-01-14T20:55:19.425Z,98357.50
2019-01-14T20:57:48.900Z,98366.86
2019-01-14T21:00:24.101Z,98364.95
2019-01-14T21:02:53.587Z,98364.36
2019-01-14T21:05:24.029Z,98361.25
2019-01-14T21:07:53.429Z,98362.08
2019-01-14T21:10:22.826Z,98373.21
2019-01-14T21:12:52.373Z,98366.58
2019-01-14T21:15:21.872Z,98384.41
2019-01-14T21:18:35.641Z,98385.65
2019-01-14T21:21:47.507Z,98388.58
2019-01-14T21:24:15.211Z,98382.09
2019-01-14T21:26:51.678Z,98374.27
2019-01-14T21:29:26.059Z,98384.63
2019-01-14T21:31:52.230Z,98388.72
2019-01-14T21:34:30.123Z,98392.92
2019-01-14T21:37:18.036Z,98379.59
2019-01-14T21:40:05.749Z,98377.97
2019-01-14T21:42:36.950Z,98384.48
2019-01-14T21:45:23.456Z,98386.14
2019-01-14T21:47:51.141Z,98382.65
2019-01-14T21:50:18.882Z,98373.02
2019-01-14T21:52:48.531Z,98370.28
2019-01-14T21:55:20.128Z,98363.85
2019-01-14T21:57:49.522Z,98367.37
2019-01-14T22:00:20.807Z,98370.91
2019-01-14T22:02:50.196Z,98376.33
2019-01-14T22:05:19.721Z,98381.96
2019-01-14T22:07:49.319Z,98379.66
2019-01-14T22:10:23.589Z,98379.73
2019-01-14T22:12:52.975Z,98392.10
2019-01-14T22:16:22.330Z,98392.77
2019-01-14T22:19:36.546Z,98382.17
2019-01-14T22:22:51.474Z,98391.84
2019-01-14T22:25:56.906Z,98398.17
2019-01-14T22:29:02.680Z,98413.45
2019-01-14T22:32:15.066Z,98402.61
2019-01-14T22:34:44.985Z,98405.64
2019-01-14T22:37:14.456Z,98405.69
2019-01-14T22:39:44.027Z,98416.37
2019-01-14T22:42:13.477Z,98421.73
2019-01-14T22:44:43.004Z,98417.70
2019-01-14T22:47:12.479Z,98415.87
2019-01-14T22:49:41.895Z,98416.03
2019-01-14T22:52:11.356Z,98412.72
2019-01-14T22:54:40.840Z,98416.73
2019-01-14T22:57:10.311Z,98427.05
2019-01-14T22:59:39.765Z,98415.45
2019-01-14T23:02:09.437Z,98415.81
2019-01-14T23:04:38.812Z,98412.12
2019-01-14T23:07:08.475Z,98423.06
2019-01-14T23:09:37.946Z,98427.38
2019-01-14T23:12:07.388Z,98439.08
2019-01-14T23:14:36.815Z,98440.07
2019-01-14T23:17:06.283Z,98457.55
2019-01-14T23:19:35.736Z,98463.99
2019-01-14T23:22:05.139Z,98463.04
2019-01-14T23:24:34.664Z,98462.53
2019-01-14T23:27:04.063Z,98464.02
2019-01-14T23:29:33.519Z,98474.65
2019-01-14T23:32:02.997Z,98480.62
2019-01-14T23:34:32.449Z,98474.00
2019-01-14T23:37:01.826Z,98481.97
2019-01-14T23:39:31.248Z,98487.28
2019-01-14T23:42:00.796Z,98482.97
2019-01-14T23:44:30.184Z,98501.59
2019-01-14T23:46:59.697Z,98489.61
2019-01-14T23:49:29.180Z,98489.63
2019-01-14T23:51:58.547Z,98495.42
2019-01-14T23:54:27.993Z,98512.05
2019-01-14T23:56:57.474Z,98508.89
2019-01-14T23:59:26.914Z,98512.21
